Back to Top

Language: 

My Weather Underground Personal Weather Station Historical Data with Graphs...

Delerius Weather Station Historical Data
Daily Summary for July 13, 2017 Units:  English    Metric   Both
« Previous Day
Next Day »
Daily Weekly Monthly Yearly Custom
  High: Low: Average:
Temperature: 74.8 °F 56.1 °F 64 °F
Dew Point: 55.3 °F 47.0 °F 50.9 °F
Humidity: 79 % 42 % 64 %
Wind Speed: 13.0 mph 0.0 mph 5.5 mph
Wind Gust: 24.0 mph - -
Wind:- - SW
Pressure: 30.18 in 29.99 in -
Precipitation: 0.00 in    
Historical Graphs
 
 
Tabular Data for July 13, 2017
Time Temperature Dew Point Pressure Wind Wind Speed Wind Gust Humidity Rainfall Rate (Hourly) solar Conditions
00:04 57.2 °F 50.4 °F 30.18 in SSW 2.0 mph 8.0 mph 78 % 0.00 in 0 W/m2
00:09 57.2 °F 50.4 °F 30.18 in SSW 2.0 mph 8.0 mph 78 % 0.00 in 0 W/m2
00:14 57.2 °F 50.4 °F 30.18 in SSW 2.0 mph 6.0 mph 78 % 0.00 in 0 W/m2
00:18 57.0 °F 50.2 °F 30.18 in South 1.0 mph 5.0 mph 78 % 0.00 in 0 W/m2
00:24 57.0 °F 50.2 °F 30.18 in Calm   4.0 mph 78 % 0.00 in 0 W/m2
00:29 56.8 °F 50.1 °F 30.18 in SSW 1.0 mph 4.0 mph 78 % 0.00 in 0 W/m2
00:34 56.7 °F 50.2 °F 30.18 in SW 1.0 mph 5.0 mph 79 % 0.00 in 0 W/m2
00:39 56.5 °F 50.0 °F 30.18 in WSW 2.0 mph 5.0 mph 79 % 0.00 in 0 W/m2
00:44 56.5 °F 50.0 °F 30.18 in WSW 2.0 mph 6.0 mph 79 % 0.00 in 0 W/m2
00:49 56.3 °F 49.9 °F 30.18 in WSW 3.0 mph 7.0 mph 79 % 0.00 in 0 W/m2
00:54 56.5 °F 50.0 °F 30.18 in SW 4.0 mph 9.0 mph 79 % 0.00 in 0 W/m2
00:59 56.5 °F 50.0 °F 30.18 in SSW 5.0 mph 10.0 mph 79 % 0.00 in 0 W/m2
01:04 56.7 °F 49.9 °F 30.18 in SSW 6.0 mph 10.0 mph 78 % 0.00 in 0 W/m2
01:09 56.8 °F 50.1 °F 30.18 in SSW 6.0 mph 11.0 mph 78 % 0.00 in 0 W/m2
01:14 56.8 °F 50.1 °F 30.18 in SW 6.0 mph 11.0 mph 78 % 0.00 in 0 W/m2
01:19 56.8 °F 50.1 °F 30.17 in SW 5.0 mph 9.0 mph 78 % 0.00 in 0 W/m2
01:24 56.7 °F 49.9 °F 30.18 in SW 5.0 mph 9.0 mph 78 % 0.00 in 0 W/m2
01:29 56.7 °F 49.9 °F 30.17 in SW 5.0 mph 8.0 mph 78 % 0.00 in 0 W/m2
01:34 56.7 °F 49.9 °F 30.18 in SW 6.0 mph 10.0 mph 78 % 0.00 in 0 W/m2
01:39 56.5 °F 49.7 °F 30.18 in SW 6.0 mph 10.0 mph 78 % 0.00 in 0 W/m2
01:44 56.5 °F 49.7 °F 30.18 in SW 5.0 mph 10.0 mph 78 % 0.00 in 0 W/m2
01:49 56.3 °F 49.5 °F 30.18 in SW 4.0 mph 10.0 mph 78 % 0.00 in 0 W/m2
01:54 56.1 °F 49.4 °F 30.17 in SW 3.0 mph 8.0 mph 78 % 0.00 in 0 W/m2
01:59 56.1 °F 49.0 °F 30.18 in SW 4.0 mph 7.0 mph 77 % 0.00 in 0 W/m2
02:04 56.1 °F 49.0 °F 30.18 in SW 4.0 mph 8.0 mph 77 % 0.00 in 0 W/m2
02:09 56.1 °F 49.0 °F 30.17 in SW 5.0 mph 8.0 mph 77 % 0.00 in 0 W/m2
02:14 56.1 °F 48.7 °F 30.17 in SW 4.0 mph 7.0 mph 76 % 0.00 in 0 W/m2
02:19 56.1 °F 48.7 °F 30.17 in SW 4.0 mph 8.0 mph 76 % 0.00 in 0 W/m2
02:24 56.3 °F 48.8 °F 30.17 in SSW 4.0 mph 9.0 mph 76 % 0.00 in 0 W/m2
02:29 56.5 °F 49.0 °F 30.17 in SSW 5.0 mph 9.0 mph 76 % 0.00 in 0 W/m2
02:34 56.5 °F 48.6 °F 30.17 in SW 4.0 mph 9.0 mph 75 % 0.00 in 0 W/m2
02:39 56.3 °F 48.5 °F 30.17 in SW 3.0 mph 8.0 mph 75 % 0.00 in 0 W/m2
02:44 56.3 °F 48.5 °F 30.17 in SW 3.0 mph 8.0 mph 75 % 0.00 in 0 W/m2
02:49 56.1 °F 48.3 °F 30.17 in SW 3.0 mph 8.0 mph 75 % 0.00 in 0 W/m2
02:54 56.1 °F 48.3 °F 30.17 in SW 3.0 mph 8.0 mph 75 % 0.00 in 0 W/m2
02:59 56.1 °F 48.3 °F 30.17 in SW 3.0 mph 9.0 mph 75 % 0.00 in 0 W/m2
03:04 56.1 °F 48.3 °F 30.16 in SW 4.0 mph 9.0 mph 75 % 0.00 in 0 W/m2
03:09 56.1 °F 47.9 °F 30.16 in SW 4.0 mph 8.0 mph 74 % 0.00 in 0 W/m2
03:14 56.3 °F 48.1 °F 30.16 in WSW 4.0 mph 6.0 mph 74 % 0.00 in 0 W/m2
03:19 56.3 °F 48.1 °F 30.16 in SW 3.0 mph 6.0 mph 74 % 0.00 in 0 W/m2
03:24 56.3 °F 47.8 °F 30.16 in SW 2.0 mph 6.0 mph 73 % 0.00 in 0 W/m2
03:29 56.5 °F 47.9 °F 30.16 in SW 2.0 mph 6.0 mph 73 % 0.00 in 0 W/m2
03:34 56.5 °F 47.9 °F 30.16 in SW 2.0 mph 6.0 mph 73 % 0.00 in 0 W/m2
03:39 56.5 °F 47.6 °F 30.16 in SW 1.0 mph 5.0 mph 72 % 0.00 in 0 W/m2
03:44 56.5 °F 47.9 °F 30.16 in SW 1.0 mph 4.0 mph 73 % 0.00 in 0 W/m2
03:49 56.5 °F 47.6 °F 30.16 in SW 2.0 mph 6.0 mph 72 % 0.00 in 0 W/m2
03:54 56.5 °F 47.6 °F 30.16 in SW 3.0 mph 7.0 mph 72 % 0.00 in 0 W/m2
03:59 56.5 °F 47.6 °F 30.16 in SSW 3.0 mph 7.0 mph 72 % 0.00 in 0 W/m2
04:04 56.5 °F 47.6 °F 30.16 in SSW 2.0 mph 7.0 mph 72 % 0.00 in 0 W/m2
04:09 56.5 °F 47.2 °F 30.16 in SSW 2.0 mph 7.0 mph 71 % 0.00 in 0 W/m2
04:14 56.5 °F 47.6 °F 30.16 in South 3.0 mph 6.0 mph 72 % 0.00 in 0 W/m2
04:19 56.5 °F 47.6 °F 30.16 in South 2.0 mph 7.0 mph 72 % 0.00 in 0 W/m2
04:24 56.5 °F 47.2 °F 30.16 in SSW 3.0 mph 8.0 mph 71 % 0.00 in 0 W/m2
04:29 56.7 °F 47.4 °F 30.16 in SSW 5.0 mph 9.0 mph 71 % 0.00 in 0 W/m2
04:34 56.7 °F 47.4 °F 30.16 in SW 5.0 mph 9.0 mph 71 % 0.00 in 0 W/m2
04:39 56.7 °F 47.4 °F 30.16 in SW 5.0 mph 9.0 mph 71 % 0.00 in 0 W/m2
04:44 56.7 °F 47.4 °F 30.16 in SSW 4.0 mph 7.0 mph 71 % 0.00 in 0 W/m2
04:49 56.7 °F 47.4 °F 30.16 in South 4.0 mph 9.0 mph 71 % 0.00 in 0 W/m2
04:55 56.7 °F 47.4 °F 30.16 in South 4.0 mph 10.0 mph 71 % 0.00 in 0 W/m2
05:00 56.7 °F 47.0 °F 30.15 in South 4.0 mph 11.0 mph 70 % 0.00 in 0 W/m2
05:05 56.8 °F 47.2 °F 30.15 in South 4.0 mph 11.0 mph 70 % 0.00 in 0 W/m2
05:10 56.8 °F 47.5 °F 30.15 in South 3.0 mph 8.0 mph 71 % 0.00 in 0 W/m2
05:15 56.7 °F 47.4 °F 30.15 in South 3.0 mph 7.0 mph 71 % 0.00 in 5 W/m2
05:20 56.7 °F 47.4 °F 30.15 in South 2.0 mph 6.0 mph 71 % 0.00 in 5 W/m2
05:25 56.7 °F 47.4 °F 30.15 in SSW 1.0 mph 5.0 mph 71 % 0.00 in 7 W/m2
05:30 56.7 °F 47.7 °F 30.15 in SSW 1.0 mph 5.0 mph 72 % 0.00 in 7 W/m2
05:35 56.5 °F 47.6 °F 30.15 in Calm   2.0 mph 72 % 0.00 in 7 W/m2
05:40 56.5 °F 47.9 °F 30.15 in Calm   1.0 mph 73 % 0.00 in 11 W/m2
05:45 56.1 °F 47.6 °F 30.15 in Calm   1.0 mph 73 % 0.00 in 14 W/m2
05:50 56.3 °F 47.8 °F 30.15 in Calm   4.0 mph 73 % 0.00 in 23 W/m2
05:55 56.5 °F 48.3 °F 30.15 in Calm   4.0 mph 74 % 0.00 in 28 W/m2
06:00 56.5 °F 47.9 °F 30.14 in WNW 1.0 mph 6.0 mph 73 % 0.00 in 33 W/m2
06:05 56.7 °F 48.5 °F 30.14 in WNW 1.0 mph 6.0 mph 74 % 0.00 in 37 W/m2
06:10 56.8 °F 48.6 °F 30.14 in Calm   2.0 mph 74 % 0.00 in 39 W/m2
06:15 57.0 °F 48.8 °F 30.14 in Calm   2.0 mph 74 % 0.00 in 37 W/m2
06:20 57.0 °F 48.8 °F 30.14 in Calm     74 % 0.00 in 33 W/m2
06:25 57.2 °F 49.0 °F 30.14 in Calm   3.0 mph 74 % 0.00 in 30 W/m2
06:30 57.4 °F 49.2 °F 30.14 in WNW 1.0 mph 4.0 mph 74 % 0.00 in 32 W/m2
06:35 57.6 °F 49.3 °F 30.14 in WNW 2.0 mph 6.0 mph 74 % 0.00 in 37 W/m2
06:40 57.7 °F 49.1 °F 30.14 in West 3.0 mph 10.0 mph 73 % 0.00 in 40 W/m2
06:45 57.9 °F 49.3 °F 30.14 in WSW 3.0 mph 10.0 mph 73 % 0.00 in 46 W/m2
06:50 58.3 °F 49.7 °F 30.14 in SW 1.0 mph 5.0 mph 73 % 0.00 in 51 W/m2
06:55 58.3 °F 49.7 °F 30.14 in Calm   2.0 mph 73 % 0.00 in 54 W/m2
07:00 58.5 °F 49.5 °F 30.14 in SW 1.0 mph 6.0 mph 72 % 0.00 in 53 W/m2
07:05 58.6 °F 49.6 °F 30.14 in SW 3.0 mph 7.0 mph 72 % 0.00 in 63 W/m2
07:10 58.8 °F 49.8 °F 30.14 in SW 4.0 mph 7.0 mph 72 % 0.00 in 67 W/m2
07:15 59.0 °F 50.0 °F 30.14 in SW 4.0 mph 8.0 mph 72 % 0.00 in 67 W/m2
07:20 59.2 °F 50.2 °F 30.14 in SW 4.0 mph 8.0 mph 72 % 0.00 in 69 W/m2
07:25 59.2 °F 49.8 °F 30.14 in SSW 4.0 mph 10.0 mph 71 % 0.00 in 72 W/m2
07:30 59.4 °F 50.3 °F 30.14 in SSW 4.0 mph 10.0 mph 72 % 0.00 in 81 W/m2
07:35 59.4 °F 50.3 °F 30.14 in SSW 4.0 mph 9.0 mph 72 % 0.00 in 84 W/m2
07:40 59.5 °F 50.5 °F 30.14 in SSW 2.0 mph 6.0 mph 72 % 0.00 in 81 W/m2
07:45 59.5 °F 50.5 °F 30.14 in SSW 1.0 mph 7.0 mph 72 % 0.00 in 98 W/m2
07:50 59.7 °F 50.7 °F 30.14 in South 2.0 mph 7.0 mph 72 % 0.00 in 113 W/m2
07:55 59.7 °F 50.3 °F 30.14 in South 3.0 mph 6.0 mph 71 % 0.00 in 98 W/m2
08:00 60.1 °F 50.6 °F 30.14 in SSW 4.0 mph 6.0 mph 71 % 0.00 in 98 W/m2
08:01 60.1 °F 50.6 °F 30.14 in SSW 4.0 mph 7.0 mph 71 % 0.00 in 102 W/m2
08:06 60.1 °F 50.6 °F 30.14 in SSW 5.0 mph 8.0 mph 71 % 0.00 in 121 W/m2
08:11 60.1 °F 50.6 °F 30.14 in SSW 5.0 mph 8.0 mph 71 % 0.00 in 139 W/m2
08:16 60.3 °F 50.8 °F 30.14 in South 5.0 mph 10.0 mph 71 % 0.00 in 158 W/m2
08:21 60.4 °F 51.0 °F 30.14 in SSW 4.0 mph 10.0 mph 71 % 0.00 in 186 W/m2
08:26 60.4 °F 51.0 °F 30.13 in SSW 4.0 mph 10.0 mph 71 % 0.00 in 216 W/m2
08:31 60.8 °F 51.3 °F 30.13 in SSW 3.0 mph 10.0 mph 71 % 0.00 in 230 W/m2
08:36 61.0 °F 51.5 °F 30.13 in SW 3.0 mph 7.0 mph 71 % 0.00 in 234 W/m2
08:41 61.3 °F 51.9 °F 30.13 in SW 3.0 mph 6.0 mph 71 % 0.00 in 241 W/m2
08:46 61.5 °F 52.0 °F 30.13 in SW 3.0 mph 7.0 mph 71 % 0.00 in 232 W/m2
08:51 61.9 °F 52.4 °F 30.13 in SSW 4.0 mph 8.0 mph 71 % 0.00 in 239 W/m2
08:56 62.1 °F 52.5 °F 30.13 in SSW 4.0 mph 8.0 mph 71 % 0.00 in 239 W/m2
09:01 62.2 °F 52.7 °F 30.13 in SSW 4.0 mph 8.0 mph 71 % 0.00 in 248 W/m2
09:06 62.4 °F 52.5 °F 30.13 in South 5.0 mph 8.0 mph 70 % 0.00 in 241 W/m2
09:11 62.8 °F 52.8 °F 30.13 in South 5.0 mph 8.0 mph 70 % 0.00 in 227 W/m2
09:16 63.0 °F 53.0 °F 30.13 in SSW 3.0 mph 6.0 mph 70 % 0.00 in 223 W/m2
09:21 63.1 °F 53.2 °F 30.13 in South 3.0 mph 6.0 mph 70 % 0.00 in 294 W/m2
09:26 63.3 °F 53.0 °F 30.13 in SSW 3.0 mph 6.0 mph 69 % 0.00 in 325 W/m2
09:31 63.9 °F 53.9 °F 30.13 in South 4.0 mph 7.0 mph 70 % 0.00 in 285 W/m2
09:36 64.0 °F 53.7 °F 30.13 in SSW 4.0 mph 7.0 mph 69 % 0.00 in 309 W/m2
09:41 64.6 °F 54.6 °F 30.13 in SSW 5.0 mph 7.0 mph 70 % 0.00 in 835 W/m2
09:46 65.1 °F 54.7 °F 30.13 in SW 5.0 mph 9.0 mph 69 % 0.00 in 378 W/m2
09:51 65.5 °F 54.2 °F 30.13 in SW 5.0 mph 9.0 mph 67 % 0.00 in 376 W/m2
09:56 65.8 °F 54.2 °F 30.12 in SSW 3.0 mph 8.0 mph 66 % 0.00 in 751 W/m2
10:01 66.4 °F 54.7 °F 30.12 in SSW 3.0 mph 7.0 mph 66 % 0.00 in 708 W/m2
10:06 67.3 °F 54.7 °F 30.12 in SW 6.0 mph 14.0 mph 64 % 0.00 in 703 W/m2
10:11 67.6 °F 54.6 °F 30.12 in SW 8.0 mph 14.0 mph 63 % 0.00 in 766 W/m2
10:16 68.0 °F 54.5 °F 30.12 in SW 8.0 mph 13.0 mph 62 % 0.00 in 828 W/m2
10:21 68.4 °F 55.3 °F 30.12 in SSW 8.0 mph 13.0 mph 63 % 0.00 in 889 W/m2
10:26 69.1 °F 54.6 °F 30.11 in SW 7.0 mph 13.0 mph 60 % 0.00 in 896 W/m2
10:31 69.4 °F 53.1 °F 30.11 in WSW 8.0 mph 15.0 mph 56 % 0.00 in 471 W/m2
10:36 68.9 °F 53.0 °F 30.11 in SW 11.0 mph 18.0 mph 57 % 0.00 in 348 W/m2
10:41 68.5 °F 53.2 °F 30.11 in SW 11.0 mph 18.0 mph 58 % 0.00 in 301 W/m2
10:46 68.4 °F 53.0 °F 30.11 in WSW 10.0 mph 14.0 mph 58 % 0.00 in 318 W/m2
10:51 68.2 °F 53.8 °F 30.11 in WSW 9.0 mph 14.0 mph 60 % 0.00 in 366 W/m2
10:56 68.2 °F 52.8 °F 30.11 in SW 8.0 mph 12.0 mph 58 % 0.00 in 373 W/m2
10:58 68.2 °F 53.3 °F 30.11 in SW 8.0 mph 16.0 mph 59 % 0.00 in 373 W/m2
11:03 68.2 °F 53.3 °F 30.11 in SW 10.0 mph 19.0 mph 59 % 0.00 in 879 W/m2
11:08 68.5 °F 54.1 °F 30.11 in SW 9.0 mph 19.0 mph 60 % 0.00 in 877 W/m2
11:13 68.5 °F 54.1 °F 30.11 in SW 8.0 mph 14.0 mph 60 % 0.00 in 309 W/m2
11:18 68.2 °F 51.9 °F 30.11 in SW 9.0 mph 20.0 mph 56 % 0.00 in 292 W/m2
11:23 68.0 °F 52.7 °F 30.11 in SW 10.0 mph 20.0 mph 58 % 0.00 in 301 W/m2
11:28 67.8 °F 53.0 °F 30.11 in SW 9.0 mph 19.0 mph 59 % 0.00 in 359 W/m2
11:33 68.0 °F 52.7 °F 30.11 in SW 8.0 mph 13.0 mph 58 % 0.00 in 443 W/m2
11:38 68.9 °F 53.0 °F 30.11 in SW 9.0 mph 19.0 mph 57 % 0.00 in 814 W/m2
11:43 69.1 °F 51.7 °F 30.11 in SW 10.0 mph 19.0 mph 54 % 0.00 in 336 W/m2
11:48 68.9 °F 51.6 °F 30.10 in WSW 10.0 mph 16.0 mph 54 % 0.00 in 396 W/m2
11:53 69.1 °F 51.7 °F 30.10 in WSW 9.0 mph 16.0 mph 54 % 0.00 in 306 W/m2
11:58 68.9 °F 50.5 °F 30.10 in WSW 9.0 mph 15.0 mph 52 % 0.00 in 410 W/m2
12:03 68.9 °F 50.5 °F 30.10 in SW 9.0 mph 16.0 mph 52 % 0.00 in 417 W/m2
12:08 68.9 °F 49.5 °F 30.10 in SW 11.0 mph 20.0 mph 50 % 0.00 in 343 W/m2
12:13 68.7 °F 50.9 °F 30.10 in SW 11.0 mph 20.0 mph 53 % 0.00 in 863 W/m2
12:18 69.4 °F 51.0 °F 30.09 in SW 9.0 mph 15.0 mph 52 % 0.00 in 798 W/m2
12:23 70.5 °F 51.0 °F 30.09 in SW 10.0 mph 16.0 mph 50 % 0.00 in 677 W/m2
12:29 71.1 °F 50.4 °F 30.09 in WSW 11.0 mph 21.0 mph 48 % 0.00 in 510 W/m2
12:33 70.7 °F 50.0 °F 30.09 in WSW 11.0 mph 21.0 mph 48 % 0.00 in 694 W/m2
12:39 70.9 °F 49.1 °F 30.09 in SW 10.0 mph 19.0 mph 46 % 0.00 in 694 W/m2
12:44 70.7 °F 48.3 °F 30.09 in WSW 10.0 mph 19.0 mph 45 % 0.00 in 388 W/m2
12:49 70.7 °F 48.9 °F 30.09 in WSW 11.0 mph 18.0 mph 46 % 0.00 in 942 W/m2
12:54 71.1 °F 48.6 °F 30.09 in SW 10.0 mph 18.0 mph 45 % 0.00 in 789 W/m2
12:59 71.1 °F 49.8 °F 30.09 in SW 10.0 mph 18.0 mph 47 % 0.00 in 761 W/m2
13:04 70.9 °F 49.6 °F 30.08 in SW 10.0 mph 19.0 mph 47 % 0.00 in 686 W/m2
13:09 71.1 °F 50.4 °F 30.08 in SW 9.0 mph 19.0 mph 48 % 0.00 in 381 W/m2
13:14 70.9 °F 49.1 °F 30.08 in SW 9.0 mph 18.0 mph 46 % 0.00 in 390 W/m2
13:19 70.9 °F 50.2 °F 30.08 in SW 10.0 mph 18.0 mph 48 % 0.00 in 355 W/m2
13:24 70.9 °F 50.8 °F 30.08 in SSW 10.0 mph 18.0 mph 49 % 0.00 in 642 W/m2
13:29 70.9 °F 51.3 °F 30.08 in SW 12.0 mph 20.0 mph 50 % 0.00 in 707 W/m2
13:34 70.9 °F 50.8 °F 30.08 in SW 12.0 mph 20.0 mph 49 % 0.00 in 712 W/m2
13:39 71.1 °F 52.0 °F 30.08 in SW 9.0 mph 15.0 mph 51 % 0.00 in 348 W/m2
13:44 70.9 °F 51.3 °F 30.07 in SW 9.0 mph 16.0 mph 50 % 0.00 in 501 W/m2
13:49 70.9 °F 52.4 °F 30.07 in SW 10.0 mph 16.0 mph 52 % 0.00 in 701 W/m2
13:54 70.9 °F 52.4 °F 30.07 in SW 11.0 mph 20.0 mph 52 % 0.00 in 406 W/m2
13:59 70.5 °F 52.6 °F 30.07 in SW 11.0 mph 20.0 mph 53 % 0.00 in 348 W/m2
14:04 70.3 °F 52.9 °F 30.07 in SW 10.0 mph 16.0 mph 54 % 0.00 in 497 W/m2
14:09 70.5 °F 53.1 °F 30.07 in SW 9.0 mph 16.0 mph 54 % 0.00 in 385 W/m2
14:14 70.9 °F 53.9 °F 30.07 in SW 9.0 mph 18.0 mph 55 % 0.00 in 886 W/m2
14:19 71.2 °F 52.7 °F 30.06 in SW 10.0 mph 19.0 mph 52 % 0.00 in 717 W/m2
14:24 71.4 °F 51.8 °F 30.06 in SSW 10.0 mph 19.0 mph 50 % 0.00 in 724 W/m2
14:29 72.0 °F 51.8 °F 30.06 in SSW 9.0 mph 18.0 mph 49 % 0.00 in 784 W/m2
14:34 72.3 °F 51.5 °F 30.06 in SW 10.0 mph 15.0 mph 48 % 0.00 in 643 W/m2
14:39 72.3 °F 50.4 °F 30.06 in WSW 11.0 mph 24.0 mph 46 % 0.00 in 719 W/m2
14:44 72.5 °F 49.9 °F 30.06 in WSW 12.0 mph 24.0 mph 45 % 0.00 in 751 W/m2
14:49 72.5 °F 49.3 °F 30.06 in WSW 12.0 mph 21.0 mph 44 % 0.00 in 800 W/m2
14:54 72.3 °F 48.6 °F 30.06 in SW 13.0 mph 22.0 mph 43 % 0.00 in 788 W/m2
14:59 72.3 °F 49.2 °F 30.05 in SW 11.0 mph 22.0 mph 44 % 0.00 in 707 W/m2
15:04 72.5 °F 48.1 °F 30.05 in SW 10.0 mph 18.0 mph 42 % 0.00 in 666 W/m2
15:09 72.7 °F 49.5 °F 30.05 in SW 10.0 mph 20.0 mph 44 % 0.00 in 671 W/m2
15:14 72.3 °F 49.2 °F 30.05 in SW 12.0 mph 20.0 mph 44 % 0.00 in 564 W/m2
15:19 72.1 °F 49.6 °F 30.05 in SW 12.0 mph 20.0 mph 45 % 0.00 in 700 W/m2
15:24 72.7 °F 50.7 °F 30.05 in WSW 10.0 mph 16.0 mph 46 % 0.00 in 896 W/m2
15:29 73.6 °F 50.3 °F 30.05 in West 11.0 mph 20.0 mph 44 % 0.00 in 761 W/m2
15:34 74.1 °F 50.2 °F 30.05 in West 11.0 mph 20.0 mph 43 % 0.00 in 874 W/m2
15:39 73.8 °F 50.5 °F 30.05 in WSW 10.0 mph 19.0 mph 44 % 0.00 in 853 W/m2
15:44 73.9 °F 50.6 °F 30.05 in West 10.0 mph 19.0 mph 44 % 0.00 in 738 W/m2
15:49 73.2 °F 50.0 °F 30.04 in West 9.0 mph 15.0 mph 44 % 0.00 in 209 W/m2
15:54 72.9 °F 50.9 °F 30.04 in West 9.0 mph 14.0 mph 46 % 0.00 in 930 W/m2
15:59 73.2 °F 51.2 °F 30.04 in West 9.0 mph 14.0 mph 46 % 0.00 in 779 W/m2
16:05 73.8 °F 51.7 °F 30.04 in West 8.0 mph 14.0 mph 46 % 0.00 in 779 W/m2
16:10 74.3 °F 49.7 °F 30.04 in WNW 9.0 mph 18.0 mph 42 % 0.00 in 824 W/m2
16:15 74.7 °F 50.0 °F 30.04 in WNW 10.0 mph 19.0 mph 42 % 0.00 in 838 W/m2
16:20 74.8 °F 50.8 °F 30.04 in WNW 10.0 mph 19.0 mph 43 % 0.00 in 271 W/m2
16:25 74.7 °F 51.9 °F 30.03 in WNW 9.0 mph 15.0 mph 45 % 0.00 in 285 W/m2
16:30 74.1 °F 51.4 °F 30.03 in WNW 7.0 mph 15.0 mph 45 % 0.00 in 274 W/m2
16:35 73.6 °F 51.5 °F 30.03 in WNW 5.0 mph 11.0 mph 46 % 0.00 in 285 W/m2
16:40 73.6 °F 52.7 °F 30.03 in WNW 6.0 mph 11.0 mph 48 % 0.00 in 824 W/m2
16:45 73.9 °F 51.8 °F 30.03 in WNW 7.0 mph 12.0 mph 46 % 0.00 in 394 W/m2
16:50 74.1 °F 52.0 °F 30.03 in WNW 8.0 mph 13.0 mph 46 % 0.00 in 390 W/m2
16:55 74.1 °F 52.0 °F 30.03 in WNW 8.0 mph 13.0 mph 46 % 0.00 in 390 W/m2
17:00 74.3 °F 51.6 °F 30.02 in WNW 8.0 mph 14.0 mph 45 % 0.00 in 288 W/m2
17:05 74.1 °F 51.4 °F 30.02 in WNW 8.0 mph 14.0 mph 45 % 0.00 in 244 W/m2
17:10 73.9 °F 51.3 °F 30.02 in WNW 8.0 mph 12.0 mph 45 % 0.00 in 221 W/m2
17:15 73.2 °F 51.2 °F 30.02 in West 7.0 mph 12.0 mph 46 % 0.00 in 193 W/m2
17:20 73.0 °F 51.0 °F 30.02 in West 8.0 mph 11.0 mph 46 % 0.00 in 146 W/m2
17:25 72.7 °F 51.3 °F 30.02 in WNW 8.0 mph 12.0 mph 47 % 0.00 in 120 W/m2
17:30 72.1 °F 51.4 °F 30.02 in WNW 7.0 mph 12.0 mph 48 % 0.00 in 102 W/m2
17:35 72.0 °F 51.2 °F 30.02 in WNW 6.0 mph 10.0 mph 48 % 0.00 in 79 W/m2
17:40 71.4 °F 51.3 °F 30.02 in West 6.0 mph 10.0 mph 49 % 0.00 in 44 W/m2
17:45 71.1 °F 52.0 °F 30.02 in West 5.0 mph 12.0 mph 51 % 0.00 in 37 W/m2
17:50 70.9 °F 51.8 °F 30.02 in West 4.0 mph 11.0 mph 51 % 0.00 in 33 W/m2
17:55 70.2 °F 52.7 °F 30.02 in WSW 6.0 mph 14.0 mph 54 % 0.00 in 33 W/m2
18:00 69.3 °F 53.4 °F 30.02 in SW 9.0 mph 15.0 mph 57 % 0.00 in 35 W/m2
18:05 68.5 °F 54.1 °F 30.02 in SW 9.0 mph 16.0 mph 60 % 0.00 in 51 W/m2
18:10 68.2 °F 54.2 °F 30.02 in SW 9.0 mph 16.0 mph 61 % 0.00 in 56 W/m2
18:11 68.2 °F 54.2 °F 30.02 in SW 9.0 mph 16.0 mph 61 % 0.00 in 53 W/m2
18:16 67.8 °F 54.3 °F 30.02 in SW 8.0 mph 15.0 mph 62 % 0.00 in 51 W/m2
18:21 67.8 °F 53.0 °F 30.02 in WSW 8.0 mph 13.0 mph 59 % 0.00 in 63 W/m2
18:26 68.0 °F 51.7 °F 30.02 in West 9.0 mph 19.0 mph 56 % 0.00 in 79 W/m2
18:30 68.2 °F 51.9 °F 30.02 in West 9.0 mph 19.0 mph 56 % 0.00 in 53 W/m2
18:36 68.2 °F 51.9 °F 30.02 in West 8.0 mph 15.0 mph 56 % 0.00 in 40 W/m2
18:41 68.0 °F 51.7 °F 30.02 in West 9.0 mph 15.0 mph 56 % 0.00 in 35 W/m2
18:46 67.8 °F 52.0 °F 30.02 in West 9.0 mph 15.0 mph 57 % 0.00 in 30 W/m2
18:50 67.5 °F 51.7 °F 30.02 in West 8.0 mph 15.0 mph 57 % 0.00 in 37 W/m2
18:56 67.3 °F 52.5 °F 30.02 in West 8.0 mph 12.0 mph 59 % 0.00 in 51 W/m2
19:01 67.3 °F 52.9 °F 30.02 in West 8.0 mph 16.0 mph 60 % 0.00 in 51 W/m2
19:06 66.9 °F 53.5 °F 30.02 in WNW 10.0 mph 16.0 mph 62 % 0.00 in 42 W/m2
19:11 66.6 °F 53.6 °F 30.02 in WNW 9.0 mph 15.0 mph 63 % 0.00 in 37 W/m2
19:16 66.4 °F 53.8 °F 30.02 in West 8.0 mph 15.0 mph 64 % 0.00 in 39 W/m2
19:21 66.0 °F 53.9 °F 30.02 in West 7.0 mph 13.0 mph 65 % 0.00 in 49 W/m2
19:26 66.0 °F 53.9 °F 30.02 in West 6.0 mph 10.0 mph 65 % 0.00 in 213 W/m2
19:31 66.2 °F 54.5 °F 30.01 in West 5.0 mph 9.0 mph 66 % 0.00 in 258 W/m2
19:36 66.4 °F 54.3 °F 30.02 in West 5.0 mph 8.0 mph 65 % 0.00 in 244 W/m2
19:41 66.9 °F 54.8 °F 30.01 in West 5.0 mph 8.0 mph 65 % 0.00 in 132 W/m2
19:46 67.1 °F 54.1 °F 30.02 in West 5.0 mph 10.0 mph 63 % 0.00 in 223 W/m2
19:51 67.3 °F 54.3 °F 30.01 in West 6.0 mph 10.0 mph 63 % 0.00 in 116 W/m2
19:56 67.3 °F 54.3 °F 30.01 in West 6.0 mph 10.0 mph 63 % 0.00 in 69 W/m2
20:01 66.9 °F 53.9 °F 30.01 in WSW 6.0 mph 9.0 mph 63 % 0.00 in 77 W/m2
20:06 66.6 °F 54.0 °F 30.01 in WSW 6.0 mph 10.0 mph 64 % 0.00 in 47 W/m2
20:11 66.4 °F 53.8 °F 30.02 in WSW 7.0 mph 13.0 mph 64 % 0.00 in 37 W/m2
20:16 66.2 °F 53.7 °F 30.01 in West 7.0 mph 13.0 mph 64 % 0.00 in 40 W/m2
20:21 65.8 °F 52.5 °F 30.02 in West 7.0 mph 14.0 mph 62 % 0.00 in 35 W/m2
20:26 65.7 °F 52.3 °F 30.01 in WNW 8.0 mph 14.0 mph 62 % 0.00 in 30 W/m2
20:31 65.5 °F 52.1 °F 30.01 in WNW 8.0 mph 13.0 mph 62 % 0.00 in 25 W/m2
20:36 65.1 °F 51.8 °F 30.01 in WNW 7.0 mph 13.0 mph 62 % 0.00 in 21 W/m2
20:41 64.9 °F 51.6 °F 30.01 in WNW 6.0 mph 12.0 mph 62 % 0.00 in 11 W/m2
20:46 64.8 °F 51.9 °F 30.01 in WNW 6.0 mph 11.0 mph 63 % 0.00 in 5 W/m2
20:51 64.6 °F 51.7 °F 30.01 in WNW 6.0 mph 10.0 mph 63 % 0.00 in 5 W/m2
20:56 64.4 °F 52.0 °F 30.01 in West 5.0 mph 9.0 mph 64 % 0.00 in 0 W/m2
21:01 64.2 °F 52.2 °F 30.01 in West 4.0 mph 7.0 mph 65 % 0.00 in 0 W/m2
21:06 64.0 °F 52.0 °F 30.01 in West 2.0 mph 5.0 mph 65 % 0.00 in 0 W/m2
21:11 64.0 °F 52.4 °F 30.01 in West 1.0 mph 4.0 mph 66 % 0.00 in 5 W/m2
21:16 64.0 °F 52.4 °F 30.00 in West 1.0 mph 5.0 mph 66 % 0.00 in 0 W/m2
21:21 63.9 °F 52.3 °F 30.00 in West 2.0 mph 6.0 mph 66 % 0.00 in 0 W/m2
21:26 63.9 °F 52.3 °F 30.01 in West 1.0 mph 6.0 mph 66 % 0.00 in 0 W/m2
21:31 63.7 °F 52.1 °F 30.01 in West 1.0 mph 5.0 mph 66 % 0.00 in 0 W/m2
21:36 63.7 °F 52.5 °F 30.01 in West 1.0 mph 5.0 mph 67 % 0.00 in 0 W/m2
21:41 63.5 °F 52.3 °F 30.00 in West 1.0 mph 5.0 mph 67 % 0.00 in 0 W/m2
21:46 63.3 °F 52.2 °F 30.00 in WSW 2.0 mph 10.0 mph 67 % 0.00 in 0 W/m2
21:51 63.1 °F 52.4 °F 30.00 in WSW 4.0 mph 10.0 mph 68 % 0.00 in 0 W/m2
21:56 62.8 °F 52.1 °F 30.00 in WSW 5.0 mph 8.0 mph 68 % 0.00 in 0 W/m2
22:02 62.8 °F 52.1 °F 30.00 in WSW 6.0 mph 10.0 mph 68 % 0.00 in 0 W/m2
22:07 62.4 °F 52.1 °F 30.00 in WSW 6.0 mph 10.0 mph 69 % 0.00 in 0 W/m2
22:12 62.2 °F 51.9 °F 30.00 in WSW 5.0 mph 8.0 mph 69 % 0.00 in 0 W/m2
22:17 62.2 °F 52.3 °F 30.00 in WSW 4.0 mph 7.0 mph 70 % 0.00 in 0 W/m2
22:22 62.1 °F 52.2 °F 30.00 in WSW 3.0 mph 8.0 mph 70 % 0.00 in 0 W/m2
22:27 61.9 °F 52.0 °F 30.00 in WSW 4.0 mph 8.0 mph 70 % 0.00 in 0 W/m2
22:32 61.7 °F 51.8 °F 30.00 in WSW 4.0 mph 8.0 mph 70 % 0.00 in 0 W/m2
22:37 61.5 °F 51.3 °F 30.00 in WSW 4.0 mph 8.0 mph 69 % 0.00 in 0 W/m2
22:42 61.5 °F 51.3 °F 30.00 in WSW 3.0 mph 8.0 mph 69 % 0.00 in 0 W/m2
22:47 61.5 °F 51.3 °F 29.99 in West 1.0 mph 6.0 mph 69 % 0.00 in 0 W/m2
22:52 61.3 °F 51.1 °F 30.00 in Calm   2.0 mph 69 % 0.00 in 0 W/m2
22:57 61.2 °F 51.3 °F 29.99 in Calm   2.0 mph 70 % 0.00 in 0 W/m2
23:02 61.0 °F 51.5 °F 29.99 in Calm   2.0 mph 71 % 0.00 in 0 W/m2
23:07 60.6 °F 51.2 °F 29.99 in Calm   2.0 mph 71 % 0.00 in 0 W/m2
23:12 60.6 °F 51.5 °F 30.00 in Calm   2.0 mph 72 % 0.00 in 0 W/m2
23:17 60.4 °F 51.4 °F 29.99 in Calm   2.0 mph 72 % 0.00 in 0 W/m2
23:22 60.1 °F 51.4 °F 29.99 in Calm   2.0 mph 73 % 0.00 in 0 W/m2
23:27 60.1 °F 51.4 °F 29.99 in SW 1.0 mph 5.0 mph 73 % 0.00 in 0 W/m2
23:32 60.1 °F 51.4 °F 29.99 in SSW 1.0 mph 5.0 mph 73 % 0.00 in 0 W/m2
23:37 60.3 °F 51.6 °F 29.99 in SW 3.0 mph 8.0 mph 73 % 0.00 in 0 W/m2
23:42 60.4 °F 51.4 °F 29.99 in SW 4.0 mph 8.0 mph 72 % 0.00 in 0 W/m2
23:47 60.6 °F 51.5 °F 29.99 in SSW 2.0 mph 6.0 mph 72 % 0.00 in 0 W/m2
23:52 60.6 °F 51.5 °F 29.99 in SSW 1.0 mph 6.0 mph 72 % 0.00 in 0 W/m2
23:57 60.6 °F 51.9 °F 29.99 in SSW 1.0 mph 4.0 mph 73 % 0.00 in 0 W/m2
Delerius-Weather
Compliments of Weather Underground - 2.25 mb

Data updates at regular intervals.